createdAt,value
2023-04-04T00:01:09.756Z,9.40
2023-04-04T00:03:39.376Z,9.40
2023-04-04T00:06:09.001Z,9.40
2023-04-04T00:08:38.038Z,9.30
2023-04-04T00:11:06.364Z,9.30
2023-04-04T00:13:35.823Z,9.30
2023-04-04T00:16:05.451Z,9.30
2023-04-04T00:18:34.735Z,9.30
2023-04-04T00:21:03.754Z,9.20
2023-04-04T00:23:35.187Z,9.30
2023-04-04T00:26:06.729Z,9.30
2023-04-04T00:28:33.515Z,9.20
2023-04-04T00:31:01.573Z,9.10
2023-04-04T00:33:35.349Z,9.20
2023-04-04T00:36:02.863Z,9.20
2023-04-04T00:38:32.432Z,9.20
2023-04-04T00:40:59.360Z,9.20
2023-04-04T00:43:29.362Z,9.10
2023-04-04T00:45:56.945Z,9.20
2023-04-04T00:48:24.872Z,9.10
2023-04-04T00:50:54.201Z,9.10
2023-04-04T00:53:21.607Z,9.10
2023-04-04T00:55:48.517Z,9.10
2023-04-04T00:58:20.012Z,9.10
2023-04-04T01:00:47.049Z,9.10
2023-04-04T01:03:14.223Z,9.00
2023-04-04T01:05:43.745Z,9.00
2023-04-04T01:08:13.276Z,8.90
2023-04-04T01:10:40.811Z,8.90
2023-04-04T01:13:10.709Z,8.90
2023-04-04T01:15:41.114Z,8.90
2023-04-04T01:18:09.826Z,8.90
2023-04-04T01:20:51.362Z,8.90
2023-04-04T01:23:18.871Z,8.90
2023-04-04T01:25:48.401Z,8.80
2023-04-04T01:28:15.731Z,8.80
2023-04-04T01:30:49.508Z,8.80
2023-04-04T01:33:25.133Z,8.80
2023-04-04T01:36:31.892Z,8.80
2023-04-04T01:39:44.967Z,8.80
2023-04-04T01:42:13.104Z,8.70
2023-04-04T01:44:42.654Z,8.70
2023-04-04T01:47:11.682Z,8.70
2023-04-04T01:49:38.514Z,8.70
2023-04-04T01:52:07.305Z,8.70
2023-04-04T01:54:36.042Z,8.70
2023-04-04T01:57:03.062Z,8.70
2023-04-04T01:59:32.587Z,8.70
2023-04-04T02:02:01.949Z,8.70
2023-04-04T02:04:31.182Z,8.60
2023-04-04T02:06:59.241Z,8.60
2023-04-04T02:09:26.232Z,8.60
2023-04-04T02:11:56.068Z,8.60
2023-04-04T02:14:22.976Z,8.60
2023-04-04T02:16:50.750Z,8.60
2023-04-04T02:19:17.675Z,8.60
2023-04-04T02:21:46.843Z,8.50
2023-04-04T02:24:14.166Z,8.50
2023-04-04T02:26:41.868Z,8.50
2023-04-04T02:29:08.827Z,8.50
2023-04-04T02:31:41.285Z,8.50
2023-04-04T02:34:10.775Z,8.40
2023-04-04T02:36:40.165Z,8.40
2023-04-04T02:39:11.829Z,8.40
2023-04-04T02:41:41.696Z,8.40
2023-04-04T02:44:10.917Z,8.40
2023-04-04T02:46:37.911Z,8.40
2023-04-04T02:49:04.909Z,8.40
2023-04-04T02:51:33.606Z,8.30
2023-04-04T02:54:03.344Z,8.30
2023-04-04T02:56:30.174Z,8.30
2023-04-04T02:58:57.128Z,8.30
2023-04-04T03:01:26.623Z,8.30
2023-04-04T03:03:56.314Z,8.30
2023-04-04T03:06:26.312Z,8.30
2023-04-04T03:08:53.277Z,8.30
2023-04-04T03:11:22.765Z,8.30
2023-04-04T03:13:51.577Z,8.30
2023-04-04T03:16:23.674Z,8.30
2023-04-04T03:18:50.826Z,8.20
2023-04-04T03:21:17.705Z,8.20
2023-04-04T03:23:44.611Z,8.20
2023-04-04T03:26:11.493Z,8.20
2023-04-04T03:28:42.959Z,8.20
2023-04-04T03:31:09.891Z,8.20
2023-04-04T03:33:39.686Z,8.20
2023-04-04T03:36:18.183Z,8.20
2023-04-04T03:38:47.584Z,8.10
2023-04-04T03:41:16.923Z,8.10
2023-04-04T03:43:50.973Z,8.10
2023-04-04T03:46:18.004Z,8.10
2023-04-04T03:48:44.977Z,8.10
2023-04-04T03:51:12.541Z,8.10
2023-04-04T03:53:41.942Z,8.00
2023-04-04T03:56:09.881Z,8.00
2023-04-04T03:58:37.413Z,8.00
2023-04-04T04:01:04.288Z,8.00
2023-04-04T04:03:31.659Z,8.00
2023-04-04T04:06:01.407Z,8.00
2023-04-04T04:08:33.240Z,8.00
2023-04-04T04:11:08.121Z,7.90
2023-04-04T04:13:38.909Z,7.90
2023-04-04T04:16:06.477Z,7.90
2023-04-04T04:18:33.629Z,7.80
2023-04-04T04:21:02.659Z,7.80
2023-04-04T04:23:32.413Z,7.80
2023-04-04T04:26:02.517Z,7.80
2023-04-04T04:28:33.245Z,7.80
2023-04-04T04:31:08.443Z,7.80
2023-04-04T04:33:35.918Z,7.70
2023-04-04T04:36:07.265Z,7.70
2023-04-04T04:38:37.017Z,7.70
2023-04-04T04:41:06.260Z,7.70
2023-04-04T04:43:36.926Z,7.70
2023-04-04T04:46:07.133Z,7.70
2023-04-04T04:48:34.401Z,7.70
2023-04-04T04:51:01.236Z,7.70
2023-04-04T04:53:28.162Z,7.70
2023-04-04T04:55:55.279Z,7.70
2023-04-04T04:58:24.162Z,7.60
2023-04-04T05:00:57.879Z,7.60
2023-04-04T05:03:29.583Z,7.60
2023-04-04T05:05:56.491Z,7.60
2023-04-04T05:08:23.469Z,7.40
2023-04-04T05:10:54.985Z,7.50
2023-04-04T05:13:21.861Z,7.60
2023-04-04T05:15:59.339Z,7.40
2023-04-04T05:18:27.432Z,7.50
2023-04-04T05:20:57.566Z,7.50
2023-04-04T05:23:27.308Z,7.50
2023-04-04T05:25:54.315Z,7.50
2023-04-04T05:28:21.657Z,7.60
2023-04-04T05:30:48.534Z,7.50
2023-04-04T05:33:20.482Z,7.50
2023-04-04T05:35:47.424Z,7.50
2023-04-04T05:38:14.594Z,7.50
2023-04-04T05:40:41.703Z,7.50
2023-04-04T05:43:09.328Z,7.50
2023-04-04T05:45:36.856Z,7.50
2023-04-04T05:48:04.110Z,7.50
2023-04-04T05:50:31.587Z,7.50
2023-04-04T05:53:00.763Z,7.50
2023-04-04T05:55:30.780Z,7.50
2023-04-04T05:58:02.545Z,7.50
2023-04-04T06:00:31.651Z,7.50
2023-04-04T06:02:58.860Z,7.60
2023-04-04T06:05:28.442Z,7.50
2023-04-04T06:07:58.521Z,7.60
2023-04-04T06:10:27.684Z,7.60
2023-04-04T06:12:59.555Z,7.60
2023-04-04T06:15:26.517Z,7.60
2023-04-04T06:17:53.507Z,7.70
2023-04-04T06:20:22.623Z,7.70
2023-04-04T06:22:49.815Z,7.80
2023-04-04T06:25:16.739Z,7.80
2023-04-04T06:27:43.697Z,7.90
2023-04-04T06:30:16.924Z,8.00
2023-04-04T06:32:43.888Z,8.10
2023-04-04T06:35:18.209Z,8.20
2023-04-04T06:37:46.939Z,8.30
2023-04-04T06:40:19.010Z,8.40
2023-04-04T06:42:50.526Z,8.50
2023-04-04T06:45:17.743Z,8.60
2023-04-04T06:47:44.796Z,8.70
2023-04-04T06:50:15.302Z,8.80
2023-04-04T06:52:42.318Z,8.90
2023-04-04T06:55:13.175Z,9.00
2023-04-04T06:57:42.436Z,9.10
2023-04-04T07:00:12.961Z,9.20
2023-04-04T07:02:40.166Z,9.30
2023-04-04T07:05:07.890Z,9.50
2023-04-04T07:07:37.323Z,9.60
2023-04-04T07:10:07.110Z,9.80
2023-04-04T07:12:36.290Z,9.90
2023-04-04T07:15:04.236Z,10.10
2023-04-04T07:17:31.427Z,10.40
2023-04-04T07:20:02.859Z,10.60
2023-04-04T07:22:31.484Z,10.90
2023-04-04T07:25:00.694Z,11.40
2023-04-04T07:27:27.588Z,11.80
2023-04-04T07:29:54.457Z,12.30
2023-04-04T07:32:25.863Z,12.80
2023-04-04T07:34:52.781Z,13.30
2023-04-04T07:37:19.689Z,13.60
2023-04-04T07:39:47.682Z,14.20
2023-04-04T07:42:14.954Z,14.70
2023-04-04T07:44:44.815Z,15.10
2023-04-04T07:47:11.770Z,15.40
2023-04-04T07:49:38.645Z,15.60
2023-04-04T07:52:05.579Z,15.80
2023-04-04T07:54:32.470Z,16.00
2023-04-04T07:57:01.538Z,16.10
2023-04-04T07:59:28.423Z,16.40
2023-04-04T08:01:55.346Z,16.60
2023-04-04T08:04:22.364Z,16.90
2023-04-04T08:06:51.801Z,17.10
2023-04-04T08:09:18.719Z,17.30
2023-04-04T08:11:48.051Z,17.50
2023-04-04T08:14:14.925Z,17.60
2023-04-04T08:16:42.034Z,17.70
2023-04-04T08:19:08.993Z,17.80
2023-04-04T08:21:35.887Z,17.90
2023-04-04T08:24:07.797Z,17.90
2023-04-04T08:26:36.793Z,17.90
2023-04-04T08:29:06.336Z,17.90
2023-04-04T08:31:34.029Z,17.90
2023-04-04T08:34:04.789Z,17.90
2023-04-04T08:36:31.668Z,17.80
2023-04-04T08:38:58.690Z,17.70
2023-04-04T08:41:27.068Z,17.70
2023-04-04T08:43:57.484Z,17.80
2023-04-04T08:46:25.466Z,17.80
2023-04-04T08:48:53.687Z,17.80
2023-04-04T08:51:21.602Z,17.70
2023-04-04T08:53:53.597Z,17.70
2023-04-04T08:56:21.714Z,17.70
2023-04-04T08:58:48.685Z,17.70
2023-04-04T09:01:18.622Z,17.70
2023-04-04T09:03:48.279Z,17.70
2023-04-04T09:06:20.883Z,17.80
2023-04-04T09:08:48.070Z,17.80
2023-04-04T09:11:16.130Z,17.90
2023-04-04T09:13:45.979Z,17.90
2023-04-04T09:16:15.747Z,17.90
2023-04-04T09:18:43.211Z,17.90
2023-04-04T09:21:12.024Z,17.90
2023-04-04T09:23:41.288Z,17.90
2023-04-04T09:26:13.058Z,17.90
2023-04-04T09:28:44.835Z,18.00
2023-04-04T09:31:14.342Z,18.10
2023-04-04T09:33:44.265Z,18.10
2023-04-04T09:36:13.020Z,18.20
2023-04-04T09:38:45.665Z,18.20
2023-04-04T09:41:17.158Z,18.20
2023-04-04T09:43:48.431Z,18.20
2023-04-04T09:46:22.072Z,18.20
2023-04-04T09:48:53.321Z,18.20
2023-04-04T09:51:22.426Z,18.30
2023-04-04T09:53:49.506Z,18.30
2023-04-04T09:56:16.558Z,18.30
2023-04-04T09:59:00.711Z,18.30
2023-04-04T10:01:33.742Z,18.40
2023-04-04T10:04:08.959Z,18.60
2023-04-04T10:06:38.552Z,18.70
2023-04-04T10:09:08.410Z,19.00
2023-04-04T10:11:36.736Z,19.30
2023-04-04T10:14:06.806Z,19.70
2023-04-04T10:16:37.119Z,20.10
2023-04-04T10:19:08.706Z,20.50
2023-04-04T10:21:35.893Z,21.00
2023-04-04T10:24:09.780Z,21.40
2023-04-04T10:26:37.555Z,21.90
2023-04-04T10:29:06.887Z,22.50
2023-04-04T10:31:35.138Z,23.00
2023-04-04T10:34:31.219Z,23.50
2023-04-04T10:37:10.045Z,24.00
2023-04-04T10:40:02.025Z,24.60
2023-04-04T10:42:34.849Z,25.10
2023-04-04T10:45:17.004Z,25.50
2023-04-04T10:47:47.807Z,25.80
2023-04-04T10:50:17.251Z,25.80
2023-04-04T10:52:47.740Z,25.60
2023-04-04T10:55:15.961Z,25.40
2023-04-04T10:57:47.669Z,25.00
2023-04-04T11:00:18.678Z,24.50
2023-04-04T11:03:00.489Z,24.00
2023-04-04T11:05:42.532Z,23.40
2023-04-04T11:08:20.089Z,22.90
2023-04-04T11:10:49.896Z,22.40
2023-04-04T11:13:22.690Z,21.90
2023-04-04T11:16:15.418Z,21.50
2023-04-04T11:18:45.644Z,21.00
2023-04-04T11:21:19.918Z,20.70
2023-04-04T11:23:50.110Z,20.40
2023-04-04T11:26:28.268Z,20.10
2023-04-04T11:29:08.985Z,19.80
2023-04-04T11:31:43.684Z,19.50
2023-04-04T11:34:13.221Z,19.30
2023-04-04T11:36:41.223Z,19.10
2023-04-04T11:39:31.077Z,18.90
2023-04-04T11:42:06.922Z,18.70
2023-04-04T11:44:43.061Z,18.50
2023-04-04T11:47:11.902Z,18.40
2023-04-04T11:49:41.706Z,18.20
2023-04-04T11:52:11.096Z,18.10
2023-04-04T11:54:39.683Z,18.00
2023-04-04T11:57:12.086Z,17.80
2023-04-04T11:59:47.759Z,17.70
2023-04-04T12:02:34.845Z,17.60
2023-04-04T12:05:02.792Z,17.50
2023-04-04T12:07:30.499Z,17.40
2023-04-04T12:09:59.689Z,17.40
2023-04-04T12:12:28.653Z,17.30
2023-04-04T12:15:03.404Z,17.30
2023-04-04T12:17:43.446Z,17.30
2023-04-04T12:20:16.011Z,17.20
2023-04-04T12:22:43.469Z,17.20
2023-04-04T12:25:10.605Z,17.20
2023-04-04T12:27:37.603Z,17.20
2023-04-04T12:30:07.892Z,17.10
2023-04-04T12:32:37.134Z,17.10
2023-04-04T12:35:04.296Z,17.10
2023-04-04T12:37:34.434Z,17.00
2023-04-04T12:40:02.430Z,17.00
2023-04-04T12:42:32.048Z,17.00
2023-04-04T12:45:05.236Z,16.90
2023-04-04T12:47:32.390Z,16.90
2023-04-04T12:49:59.368Z,16.80
2023-04-04T12:52:32.338Z,16.80
2023-04-04T12:55:11.039Z,16.70
2023-04-04T12:57:42.305Z,16.70
2023-04-04T13:00:09.908Z,16.70
2023-04-04T13:02:39.084Z,16.60
2023-04-04T13:05:07.559Z,16.60
2023-04-04T13:07:44.747Z,16.60
2023-04-04T13:10:16.542Z,16.50
2023-04-04T13:12:58.487Z,16.50
2023-04-04T13:15:48.089Z,16.20
2023-04-04T13:18:23.773Z,16.10
2023-04-04T13:20:55.103Z,16.20
2023-04-04T13:23:23.132Z,16.20
2023-04-04T13:25:50.318Z,16.20
2023-04-04T13:28:17.575Z,16.20
2023-04-04T13:30:46.780Z,16.10
2023-04-04T13:33:17.105Z,16.10
2023-04-04T13:35:46.222Z,16.10
2023-04-04T13:38:18.511Z,16.10
2023-04-04T13:40:45.844Z,16.10
2023-04-04T13:43:14.933Z,16.10
2023-04-04T13:45:43.814Z,16.10
2023-04-04T13:48:18.263Z,16.20
2023-04-04T13:50:51.149Z,16.20
2023-04-04T13:53:18.909Z,16.20
2023-04-04T13:56:07.667Z,16.20
2023-04-04T13:58:35.154Z,16.20
2023-04-04T14:01:04.161Z,16.20
2023-04-04T14:03:36.047Z,16.20
2023-04-04T14:08:53.514Z,16.20
2023-04-04T14:11:20.955Z,16.20
2023-04-04T14:13:47.850Z,16.20
2023-04-04T14:16:19.304Z,16.20
2023-04-04T14:18:49.040Z,16.20
2023-04-04T14:21:23.303Z,16.00
2023-04-04T14:23:52.700Z,16.20
2023-04-04T14:26:21.719Z,16.20
2023-04-04T14:28:48.676Z,16.20
2023-04-04T14:31:18.016Z,16.20
2023-04-04T14:33:47.858Z,16.20
2023-04-04T14:36:15.853Z,16.20
2023-04-04T14:38:42.850Z,16.10
2023-04-04T14:41:09.718Z,16.10
2023-04-04T14:43:38.194Z,16.10
2023-04-04T14:46:05.211Z,16.00
2023-04-04T14:48:35.087Z,16.00
2023-04-04T14:51:04.988Z,16.00
2023-04-04T14:53:31.969Z,16.00
2023-04-04T14:55:58.816Z,15.90
2023-04-04T14:58:25.769Z,15.90
2023-04-04T15:00:57.500Z,15.80
2023-04-04T15:03:27.368Z,15.70
2023-04-04T15:05:54.228Z,15.70
2023-04-04T15:08:21.082Z,15.70
2023-04-04T15:10:47.949Z,15.70
2023-04-04T15:13:14.959Z,15.60
2023-04-04T15:15:46.844Z,15.60
2023-04-04T15:18:13.768Z,15.50
2023-04-04T15:20:43.181Z,15.50
2023-04-04T15:23:10.439Z,15.50
2023-04-04T15:25:37.395Z,15.50
2023-04-04T15:28:06.650Z,15.40
2023-04-04T15:30:33.635Z,15.40
2023-04-04T15:33:00.603Z,15.40
2023-04-04T15:35:30.001Z,15.40
2023-04-04T15:37:59.369Z,15.40
2023-04-04T15:40:26.332Z,15.30
2023-04-04T15:42:57.061Z,15.30
2023-04-04T15:45:27.297Z,15.30
2023-04-04T15:47:56.446Z,15.30
2023-04-04T15:50:25.570Z,15.30
2023-04-04T15:52:52.617Z,15.30
2023-04-04T15:55:21.635Z,15.20
2023-04-04T15:57:49.112Z,15.20
2023-04-04T16:00:18.832Z,15.10
2023-04-04T16:02:46.154Z,15.10
2023-04-04T16:05:13.178Z,15.10
2023-04-04T16:07:42.600Z,15.00
2023-04-04T16:10:13.163Z,15.00
2023-04-04T16:12:42.364Z,15.00
2023-04-04T16:15:12.481Z,14.90
2023-04-04T16:17:39.396Z,14.80
2023-04-04T16:20:07.446Z,14.80
2023-04-04T16:22:36.766Z,14.70
2023-04-04T16:25:08.547Z,14.70
2023-04-04T16:27:36.608Z,14.60
2023-04-04T16:30:07.495Z,14.60
2023-04-04T16:32:34.598Z,14.50
2023-04-04T16:35:01.820Z,14.50
2023-04-04T16:37:28.723Z,14.50
2023-04-04T16:39:56.572Z,14.50
2023-04-04T16:42:24.752Z,14.50
2023-04-04T16:44:51.604Z,14.50
2023-04-04T16:47:20.989Z,14.40
2023-04-04T16:49:50.417Z,14.40
2023-04-04T16:52:17.717Z,14.30
2023-04-04T16:54:44.718Z,14.20
2023-04-04T16:57:11.916Z,14.20
2023-04-04T16:59:38.968Z,14.10
2023-04-04T17:02:08.670Z,14.10
2023-04-04T17:04:40.326Z,14.00
2023-04-04T17:07:08.709Z,14.00
2023-04-04T17:09:38.320Z,13.90
2023-04-04T17:12:05.751Z,13.80
2023-04-04T17:14:33.365Z,13.80
2023-04-04T17:17:00.651Z,13.80
2023-04-04T17:19:30.281Z,13.80
2023-04-04T17:21:58.385Z,13.80
2023-04-04T17:24:26.991Z,13.70
2023-04-04T17:26:59.167Z,13.70
2023-04-04T17:29:28.896Z,13.70
2023-04-04T17:31:57.070Z,13.70
2023-04-04T17:34:24.400Z,13.70
2023-04-04T17:36:54.852Z,13.60
2023-04-04T17:39:24.364Z,13.60
2023-04-04T17:41:54.729Z,13.60
2023-04-04T17:44:24.073Z,13.50
2023-04-04T17:46:55.603Z,13.50
2023-04-04T17:49:22.487Z,13.40
2023-04-04T17:51:52.161Z,13.40
2023-04-04T17:54:22.503Z,13.30
2023-04-04T17:56:52.032Z,13.30
2023-04-04T17:59:18.978Z,13.20
2023-04-04T18:01:46.746Z,13.20
2023-04-04T18:04:13.749Z,13.20
2023-04-04T18:06:41.779Z,13.10
2023-04-04T18:09:10.504Z,13.10
2023-04-04T18:11:38.659Z,13.00
2023-04-04T18:14:05.864Z,13.00
2023-04-04T18:16:39.589Z,12.90
2023-04-04T18:19:13.248Z,12.80
2023-04-04T18:21:40.336Z,12.80
2023-04-04T18:24:11.726Z,12.70
2023-04-04T18:26:41.013Z,12.70
2023-04-04T18:29:16.622Z,12.50
2023-04-04T18:31:43.586Z,12.60
2023-04-04T18:34:16.810Z,12.60
2023-04-04T18:36:43.908Z,12.60
2023-04-04T18:39:15.922Z,12.60
2023-04-04T18:41:43.906Z,12.60
2023-04-04T18:44:10.932Z,12.60
2023-04-04T18:46:43.392Z,12.50
2023-04-04T18:49:14.808Z,12.50
2023-04-04T18:51:42.027Z,12.50
2023-04-04T18:54:08.906Z,12.50
2023-04-04T18:56:37.859Z,12.50
2023-04-04T18:59:08.507Z,12.50
2023-04-04T19:01:38.965Z,12.40
2023-04-04T19:04:08.750Z,12.40
2023-04-04T19:06:36.599Z,12.40
2023-04-04T19:09:04.574Z,12.30
2023-04-04T19:11:31.971Z,12.30
2023-04-04T19:14:01.212Z,12.30
2023-04-04T19:16:30.303Z,12.20
2023-04-04T19:18:57.317Z,12.20
2023-04-04T19:21:28.004Z,12.20
2023-04-04T19:23:54.884Z,12.10
2023-04-04T19:26:21.827Z,12.10
2023-04-04T19:28:48.848Z,12.00
2023-04-04T19:31:22.435Z,12.00
2023-04-04T19:33:54.895Z,12.00
2023-04-04T19:36:24.790Z,11.90
2023-04-04T19:38:54.661Z,11.90
2023-04-04T19:41:38.273Z,11.80
2023-04-04T19:44:07.967Z,11.70
2023-04-04T19:46:35.189Z,11.70
2023-04-04T19:49:14.591Z,11.70
2023-04-04T19:51:58.714Z,11.60
2023-04-04T19:54:34.656Z,11.50
2023-04-04T19:57:07.250Z,11.50
2023-04-04T19:59:59.324Z,11.40
2023-04-04T20:02:34.724Z,11.30
2023-04-04T20:05:02.375Z,11.30
2023-04-04T20:07:31.993Z,11.20
2023-04-04T20:10:00.968Z,11.20
2023-04-04T20:12:32.322Z,11.10
2023-04-04T20:15:04.722Z,11.10
2023-04-04T20:17:31.724Z,11.00
2023-04-04T20:20:00.744Z,10.90
2023-04-04T20:22:29.924Z,10.90
2023-04-04T20:24:56.995Z,10.90
2023-04-04T20:27:25.321Z,10.80
2023-04-04T20:29:54.066Z,10.80
2023-04-04T20:32:21.257Z,10.80
2023-04-04T20:34:50.366Z,10.70
2023-04-04T20:37:23.572Z,10.70
2023-04-04T20:39:58.831Z,10.60
2023-04-04T20:42:41.699Z,10.60
2023-04-04T20:45:27.988Z,10.60
2023-04-04T20:48:00.618Z,10.50
2023-04-04T20:50:42.643Z,10.50
2023-04-04T20:53:18.426Z,10.50
2023-04-04T20:55:48.582Z,10.40
2023-04-04T20:58:28.663Z,10.40
2023-04-04T21:01:00.830Z,10.40
2023-04-04T21:03:37.785Z,10.40
2023-04-04T21:06:13.918Z,10.30
2023-04-04T21:08:49.092Z,10.30
2023-04-04T21:11:39.493Z,10.30
2023-04-04T21:14:06.449Z,10.20
2023-04-04T21:16:35.566Z,10.20
2023-04-04T21:19:02.738Z,10.30
2023-04-04T21:21:32.432Z,10.20
2023-04-04T21:24:00.859Z,10.20
2023-04-04T21:26:38.555Z,10.20
2023-04-04T21:29:25.896Z,10.20
2023-04-04T21:31:58.514Z,10.20
2023-04-04T21:34:27.268Z,10.20
2023-04-04T21:36:59.863Z,10.20
2023-04-04T21:39:29.758Z,10.10
2023-04-04T21:42:07.971Z,10.10
2023-04-04T21:44:35.957Z,10.10
2023-04-04T21:47:05.693Z,10.00
2023-04-04T21:49:35.057Z,10.00
2023-04-04T21:52:01.959Z,10.00
2023-04-04T21:54:28.936Z,9.90
2023-04-04T21:56:55.804Z,9.90
2023-04-04T21:59:25.455Z,9.80
2023-04-04T22:01:54.714Z,9.80
2023-04-04T22:04:21.694Z,9.80
2023-04-04T22:06:53.380Z,9.70
2023-04-04T22:09:22.546Z,9.70
2023-04-04T22:11:53.845Z,9.50
2023-04-04T22:14:20.898Z,9.60
2023-04-04T22:16:49.853Z,9.60
2023-04-04T22:19:23.396Z,9.60
2023-04-04T22:21:50.328Z,9.50
2023-04-04T22:24:23.540Z,9.50
2023-04-04T22:26:51.102Z,9.50
2023-04-04T22:29:18.340Z,9.40
2023-04-04T22:31:47.478Z,9.40
2023-04-04T22:34:15.377Z,9.40
2023-04-04T22:36:43.809Z,9.40
2023-04-04T22:39:10.894Z,9.40
2023-04-04T22:41:38.331Z,9.30
2023-04-04T22:44:05.375Z,9.30
2023-04-04T22:46:34.850Z,9.30
2023-04-04T22:49:06.063Z,9.20
2023-04-04T22:51:45.657Z,9.20
2023-04-04T22:54:17.426Z,9.20
2023-04-04T22:56:44.455Z,9.20
2023-04-04T22:59:11.609Z,9.10
2023-04-04T23:01:42.155Z,9.10
2023-04-04T23:04:09.204Z,9.10
2023-04-04T23:06:36.316Z,9.10
2023-04-04T23:09:08.389Z,9.10
2023-04-04T23:11:38.266Z,9.00
2023-04-04T23:14:09.802Z,9.00
2023-04-04T23:16:36.855Z,9.00
2023-04-04T23:19:04.235Z,8.80
2023-04-04T23:21:33.628Z,8.90
2023-04-04T23:24:00.675Z,8.90
2023-04-04T23:26:27.559Z,8.90
2023-04-04T23:28:57.197Z,8.90
2023-04-04T23:31:26.735Z,8.80
2023-04-04T23:33:58.168Z,8.80
2023-04-04T23:36:25.290Z,8.80
2023-04-04T23:38:52.135Z,8.70
2023-04-04T23:41:23.669Z,8.70
2023-04-04T23:43:50.465Z,8.70
2023-04-04T23:46:17.498Z,8.50
2023-04-04T23:48:44.419Z,8.70
2023-04-04T23:51:11.367Z,8.70
2023-04-04T23:53:39.126Z,8.70
2023-04-04T23:56:06.580Z,8.70
2023-04-04T23:58:33.472Z,8.60
